Terminal Aerodrome Forecast
Issued by NWS

Home | Current Version | Previous Version | Text Only | Print | Product List | Glossary On
Versions: 1 2 3 4 5 6 7 8 9 10 11 12 13 14 15 16
000
FTUS45 KVEF 182300
TAFDAG
TAF
KDAG 182320Z 1900/1924 27016G24KT P6SM SKC
     FM190600 27014KT P6SM SKC
     FM191800 35008KT P6SM SKC=

USA.gov is the U.S. government's official web portal to all federal, state and local government web resources and services.